This is the latest recevied weather packets stored in our database for station/object JG6YPS-13. If no packets are shown the sender has not sent any weather packets the latest 10 day(s).
| Time | Temp. | Humidity | Pressure | Rain* | Wind** | Luminosity | Snow |
|---|---|---|---|---|---|---|---|
| 1777678228 | 18.33° C | 67% | 1015.5 hPa | 0 mm | - | - | - |
| 1777677628 | 20° C | 63% | 1015.4 hPa | 0 mm | - | - | - |
| 1777677028 | 17.22° C | 68% | 1015.5 hPa | 0 mm | - | - | - |
| 1777676428 | 18.33° C | 68% | 1015.3 hPa | 0 mm | - | - | - |
| 1777675829 | 16.11° C | 77% | 1015.5 hPa | 0 mm | - | - | - |
| 1777675229 | 15° C | 78% | 1015.5 hPa | 0 mm | - | - | - |
| 1777674630 | 14.44° C | 79% | 1015.4 hPa | 0 mm | - | - | - |
| 1777674031 | 14.44° C | 80% | 1015.4 hPa | 0 mm | - | - | - |
| 1777673431 | 13.33° C | 81% | 1015.3 hPa | 0 mm | - | - | - |
| 1777672831 | 12.78° C | 84% | 1015.3 hPa | 0 mm | - | - | - |
| 1777672232 | 12.22° C | 86% | 1015.1 hPa | 0 mm | - | - | - |
| 1777671632 | 11.67° C | 86% | 1015.1 hPa | 0 mm | - | - | - |
| 1777671033 | 11.67° C | 86% | 1014.9 hPa | 0 mm | - | - | - |
| 1777670433 | 11.67° C | 87% | 1014.8 hPa | 0 mm | - | - | - |
| 1777669834 | 11.11° C | 89% | 1014.8 hPa | 0 mm | - | - | - |
| 1777669235 | 10.56° C | 88% | 1014.5 hPa | 0 mm | - | - | - |
| 1777668636 | 10.56° C | 88% | 1014.5 hPa | 0 mm | - | - | - |
| 1777668037 | 10.56° C | 88% | 1014.6 hPa | 0 mm | - | - | - |
| 1777667437 | 10.56° C | 88% | 1014.5 hPa | 0 mm | - | - | - |
| 1777666838 | 10.56° C | 89% | 1014.4 hPa | 0 mm | - | - | - |
| 1777666239 | 10.56° C | 89% | 1014.6 hPa | 0 mm | - | - | - |
| 1777665640 | 10.56° C | 89% | 1014.3 hPa | 0 mm | - | - | - |
| 1777665040 | 10.56° C | 88% | 1014.2 hPa | 0 mm | - | - | - |
| 1777664441 | 10.56° C | 88% | 1014.1 hPa | 0 mm | - | - | - |
| 1777663842 | 10.56° C | 87% | 1013.9 hPa | 0 mm | - | - | - |
* Rain latest hour (hover to see other rain measurements)
** Current wind speed in m/s (hover to see current wind gust speed)